Time;durP1;ratioP1;P1;durP2;ratioP2;P2;SDS_P1;SDS_P2;PMS_P1;PMS_P2;Temp;Humidity;BMP_temperature;BMP_pressure;BME280_temperature;BME280_humidity;BME280_pressure;Samples;Min_cycle;Max_cycle;Signal;HPM_P1;HPM_P2
2023/09/22 00:00:37;;;;;;;13.75;7.63;;;;;;;;;;5091937;28;20063;-71
2023/09/22 00:03:05;;;;;;;23.75;8.82;;;;;;;;;;5098880;28;20023;-70
2023/09/22 00:05:31;;;;;;;12.38;6.93;;;;;;;;;;5112104;28;20032;-69
2023/09/22 00:07:56;;;;;;;11.50;7.25;;;;;;;;;;5112752;28;20043;-70
2023/09/22 00:10:22;;;;;;;9.73;6.80;;;;;;;;;;5112790;28;20070;-70
2023/09/22 00:12:48;;;;;;;10.98;6.18;;;;;;;;;;5110962;28;20039;-70
2023/09/22 00:15:15;;;;;;;7.72;6.00;;;;;;;;;;5112654;28;20038;-70
2023/09/22 00:17:42;;;;;;;10.93;7.07;;;;;;;;;;5112694;28;20026;-70
2023/09/22 00:20:08;;;;;;;8.25;6.13;;;;;;;;;;5112630;28;20032;-70
2023/09/22 00:22:34;;;;;;;9.57;7.00;;;;;;;;;;5112394;28;20023;-71
2023/09/22 00:25:00;;;;;;;10.32;6.35;;;;;;;;;;5112522;28;20037;-70
2023/09/22 00:27:26;;;;;;;11.38;6.47;;;;;;;;;;5112941;28;20023;-71
2023/09/22 00:29:53;;;;;;;9.98;7.10;;;;;;;;;;5111337;28;20073;-70
2023/09/22 00:32:19;;;;;;;9.35;6.30;;;;;;;;;;5098549;28;20054;-70
2023/09/22 00:34:45;;;;;;;8.80;6.30;;;;;;;;;;5090799;28;20051;-70
2023/09/22 00:37:10;;;;;;;13.27;6.78;;;;;;;;;;5090881;28;20557;-70
2023/09/22 00:39:37;;;;;;;10.50;6.80;;;;;;;;;;5091786;28;20032;-71
2023/09/22 00:42:05;;;;;;;10.43;6.40;;;;;;;;;;5090503;28;20035;-69
2023/09/22 00:44:31;;;;;;;11.70;7.00;;;;;;;;;;5090814;28;20406;-70
2023/09/22 00:46:58;;;;;;;18.23;7.05;;;;;;;;;;5092198;28;20020;-70
2023/09/22 00:49:24;;;;;;;9.70;7.32;;;;;;;;;;5073943;28;20032;-70
2023/09/22 00:51:50;;;;;;;12.85;7.45;;;;;;;;;;5090607;28;20016;-70
2023/09/22 00:54:16;;;;;;;13.48;8.07;;;;;;;;;;5090281;28;20114;-70
2023/09/22 00:56:45;;;;;;;12.75;7.22;;;;;;;;;;5090798;28;20604;-70
2023/09/22 00:59:11;;;;;;;12.50;7.43;;;;;;;;;;5090720;28;20024;-69
2023/09/22 01:01:37;;;;;;;13.50;9.23;;;;;;;;;;5098925;28;20107;-69
2023/09/22 01:04:03;;;;;;;16.27;11.13;;;;;;;;;;5090675;28;20670;-70
2023/09/22 01:06:29;;;;;;;18.80;11.30;;;;;;;;;;5091653;28;20024;-70
2023/09/22 01:08:56;;;;;;;15.25;11.20;;;;;;;;;;5073517;28;20028;-70
2023/09/22 01:11:22;;;;;;;17.40;12.68;;;;;;;;;;5090446;28;20020;-70
2023/09/22 01:13:47;;;;;;;21.67;13.70;;;;;;;;;;5090648;28;20031;-71
2023/09/22 01:16:13;;;;;;;16.60;13.05;;;;;;;;;;5091614;28;20422;-70
2023/09/22 01:18:39;;;;;;;20.88;12.63;;;;;;;;;;5096065;28;20043;-70
2023/09/22 01:21:05;;;;;;;18.92;13.05;;;;;;;;;;5094480;28;20027;-69
2023/09/22 01:23:32;;;;;;;19.75;12.55;;;;;;;;;;5095004;28;20036;-70
2023/09/22 01:25:58;;;;;;;16.90;11.52;;;;;;;;;;5095160;28;20024;-70
2023/09/22 01:28:25;;;;;;;18.50;11.85;;;;;;;;;;5096274;28;20402;-70
2023/09/22 01:30:50;;;;;;;14.93;11.20;;;;;;;;;;5094206;28;20024;-72
2023/09/22 01:33:16;;;;;;;16.10;9.65;;;;;;;;;;5095724;28;20107;-70
2023/09/22 01:35:42;;;;;;;17.75;10.48;;;;;;;;;;5095547;28;20027;-70
2023/09/22 01:38:23;;;;;;;18.55;11.05;;;;;;;;;;5094124;28;20028;-70
2023/09/22 01:40:50;;;;;;;17.63;11.88;;;;;;;;;;5093832;28;20062;-70
2023/09/22 01:43:17;;;;;;;18.23;12.32;;;;;;;;;;5095341;28;20381;-70
2023/09/22 01:45:43;;;;;;;18.27;10.60;;;;;;;;;;5095450;28;20036;-71
2023/09/22 01:48:09;;;;;;;16.52;11.00;;;;;;;;;;5093939;28;20024;-69
2023/09/22 01:50:40;;;;;;;18.55;10.90;;;;;;;;;;5093786;28;20070;-69
2023/09/22 01:53:11;;;;;;;35.42;14.02;;;;;;;;;;5092957;28;20020;-72
2023/09/22 01:55:41;;;;;;;17.92;11.85;;;;;;;;;;5073382;28;20052;-70
2023/09/22 01:58:07;;;;;;;15.90;11.18;;;;;;;;;;5090285;28;20035;-71
2023/09/22 02:00:38;;;;;;;19.17;10.60;;;;;;;;;;5089718;28;20097;-70
2023/09/22 02:03:05;;;;;;;15.90;10.20;;;;;;;;;;5093404;28;20036;-70
2023/09/22 02:05:31;;;;;;;18.33;11.40;;;;;;;;;;5093697;28;20020;-71
2023/09/22 02:07:57;;;;;;;19.88;11.50;;;;;;;;;;5094889;28;20042;-70
2023/09/22 02:10:23;;;;;;;19.50;11.32;;;;;;;;;;5095671;28;20408;-69
2023/09/22 02:12:50;;;;;;;24.20;13.10;;;;;;;;;;5093975;28;20036;-69
2023/09/22 02:15:16;;;;;;;24.40;11.25;;;;;;;;;;5093386;28;20056;-70
2023/09/22 02:17:44;;;;;;;15.02;10.15;;;;;;;;;;5093272;28;20043;-71
2023/09/22 02:20:22;;;;;;;13.98;9.70;;;;;;;;;;5093842;28;20077;-69
2023/09/22 02:22:53;;;;;;;16.70;11.45;;;;;;;;;;5093144;28;20050;-70
2023/09/22 02:25:21;;;;;;;20.05;10.75;;;;;;;;;;5093267;28;20032;-70
2023/09/22 02:27:48;;;;;;;16.50;10.60;;;;;;;;;;5093726;28;20417;-70
2023/09/22 02:30:14;;;;;;;18.20;10.55;;;;;;;;;;5093081;28;20032;-70
2023/09/22 02:32:44;;;;;;;15.85;10.50;;;;;;;;;;5092884;28;20024;-70
2023/09/22 02:35:11;;;;;;;18.45;10.02;;;;;;;;;;5093040;28;20516;-71
2023/09/22 02:37:36;;;;;;;15.18;10.25;;;;;;;;;;5110003;28;20028;-70
2023/09/22 02:40:03;;;;;;;16.80;10.60;;;;;;;;;;5092877;28;20513;-70
2023/09/22 02:42:29;;;;;;;14.15;10.18;;;;;;;;;;5093953;28;20569;-71
2023/09/22 02:44:55;;;;;;;18.23;10.88;;;;;;;;;;5093030;28;20123;-71
2023/09/22 02:47:21;;;;;;;23.15;12.50;;;;;;;;;;5092969;28;20020;-70
2023/09/22 02:49:47;;;;;;;19.90;11.25;;;;;;;;;;5094014;28;20115;-70
2023/09/22 02:52:14;;;;;;;17.70;10.85;;;;;;;;;;5093946;28;20031;-69
2023/09/22 02:54:39;;;;;;;16.55;9.88;;;;;;;;;;5094040;28;20040;-69
2023/09/22 02:57:07;;;;;;;15.18;9.63;;;;;;;;;;5092729;28;20111;-71
2023/09/22 02:59:33;;;;;;;17.45;8.63;;;;;;;;;;5075894;28;20101;-70
2023/09/22 03:01:58;;;;;;;12.57;8.88;;;;;;;;;;5074215;28;20103;-71
2023/09/22 03:04:24;;;;;;;16.85;8.48;;;;;;;;;;5074543;28;20105;-70
2023/09/22 03:06:50;;;;;;;14.07;8.45;;;;;;;;;;5089676;28;20075;-70
2023/09/22 03:09:17;;;;;;;15.30;8.43;;;;;;;;;;5098156;28;20048;-69
2023/09/22 03:11:43;;;;;;;16.40;8.38;;;;;;;;;;5092372;28;20511;-71
2023/09/22 03:14:09;;;;;;;13.38;8.68;;;;;;;;;;5092755;28;20035;-69
2023/09/22 03:16:35;;;;;;;15.75;8.25;;;;;;;;;;5096616;28;20032;-69
2023/09/22 03:19:02;;;;;;;16.73;7.85;;;;;;;;;;5093418;28;20401;-69
2023/09/22 03:21:28;;;;;;;15.23;8.75;;;;;;;;;;5096941;28;20034;-69
2023/09/22 03:23:54;;;;;;;12.30;8.40;;;;;;;;;;5100350;28;20402;-70
2023/09/22 03:26:21;;;;;;;13.30;8.90;;;;;;;;;;5091167;28;20036;-69
2023/09/22 03:28:48;;;;;;;12.27;8.50;;;;;;;;;;5092021;28;20130;-69
2023/09/22 03:31:16;;;;;;;18.75;10.20;;;;;;;;;;5090746;28;20103;-70
2023/09/22 03:33:46;;;;;;;17.88;10.73;;;;;;;;;;5089856;28;20447;-71
2023/09/22 03:36:12;;;;;;;18.02;10.07;;;;;;;;;;5090412;28;20081;-70
2023/09/22 03:38:43;;;;;;;22.80;11.98;;;;;;;;;;5090726;28;20036;-70
2023/09/22 03:41:09;;;;;;;14.95;10.13;;;;;;;;;;5091776;28;20354;-71
2023/09/22 03:43:35;;;;;;;26.27;13.32;;;;;;;;;;5089898;28;20024;-69
2023/09/22 03:46:01;;;;;;;24.25;11.68;;;;;;;;;;5091169;28;20036;-71
2023/09/22 03:48:27;;;;;;;31.63;11.85;;;;;;;;;;5091430;28;20032;-71
2023/09/22 03:50:53;;;;;;;31.52;11.15;;;;;;;;;;5090711;28;20048;-70
2023/09/22 03:53:19;;;;;;;32.65;13.02;;;;;;;;;;5092367;28;20020;-69
2023/09/22 03:55:45;;;;;;;26.40;11.55;;;;;;;;;;5091164;28;20078;-69
2023/09/22 03:58:11;;;;;;;25.27;10.70;;;;;;;;;;5091303;28;20047;-71
2023/09/22 04:00:37;;;;;;;24.05;11.40;;;;;;;;;;5090523;28;20520;-70
2023/09/22 04:03:07;;;;;;;18.20;11.10;;;;;;;;;;5092181;28;20020;-71
2023/09/22 04:05:34;;;;;;;22.25;11.68;;;;;;;;;;5091151;28;20043;-71
2023/09/22 04:08:00;;;;;;;25.27;11.00;;;;;;;;;;5091516;28;20035;-71
2023/09/22 04:10:26;;;;;;;26.45;11.50;;;;;;;;;;5106686;28;20488;-70
2023/09/22 04:12:52;;;;;;;24.40;11.25;;;;;;;;;;5091035;28;20016;-71
2023/09/22 04:15:18;;;;;;;31.25;12.75;;;;;;;;;;5090010;28;20062;-70
2023/09/22 04:17:46;;;;;;;35.97;12.70;;;;;;;;;;5091201;28;20016;-70
2023/09/22 04:20:12;;;;;;;33.92;12.25;;;;;;;;;;5091135;28;20028;-70
2023/09/22 04:22:39;;;;;;;37.63;13.75;;;;;;;;;;5091625;28;20028;-70
2023/09/22 04:25:18;;;;;;;34.13;12.25;;;;;;;;;;5091207;28;20044;-70
2023/09/22 04:27:53;;;;;;;23.80;11.20;;;;;;;;;;5095327;28;20024;-70
2023/09/22 04:30:20;;;;;;;21.63;11.35;;;;;;;;;;5091161;28;20048;-71
2023/09/22 04:32:47;;;;;;;21.00;12.55;;;;;;;;;;5090700;28;20099;-70
2023/09/22 04:35:13;;;;;;;19.55;12.20;;;;;;;;;;5091084;28;20024;-70
2023/09/22 04:37:40;;;;;;;28.20;12.93;;;;;;;;;;5091459;28;20523;-70
2023/09/22 04:40:29;;;;;;;25.73;12.68;;;;;;;;;;5091715;28;20085;-70
2023/09/22 04:42:53;;;;;;;30.88;13.60;;;;;;;;;;5091170;28;20044;-70
2023/09/22 04:45:19;;;;;;;26.75;13.70;;;;;;;;;;5091326;28;20519;-70
2023/09/22 04:47:49;;;;;;;26.52;15.13;;;;;;;;;;5084797;28;20044;-70
2023/09/22 04:50:17;;;;;;;27.35;13.68;;;;;;;;;;5089779;28;20485;-70
2023/09/22 04:52:46;;;;;;;24.63;12.27;;;;;;;;;;5091444;28;20016;-71
2023/09/22 04:55:12;;;;;;;20.85;12.35;;;;;;;;;;5090819;28;20039;-70
2023/09/22 04:57:38;;;;;;;23.40;12.25;;;;;;;;;;5091256;28;20023;-70
2023/09/22 05:00:07;;;;;;;25.08;13.25;;;;;;;;;;5090768;28;20119;-70
2023/09/22 05:02:33;;;;;;;26.35;13.68;;;;;;;;;;5073217;28;20096;-70
2023/09/22 05:05:01;;;;;;;19.95;12.45;;;;;;;;;;5091249;28;20036;-71
2023/09/22 05:07:28;;;;;;;17.13;11.43;;;;;;;;;;5089915;28;20388;-71
2023/09/22 05:09:54;;;;;;;18.85;12.23;;;;;;;;;;5091061;28;20028;-71
2023/09/22 05:12:20;;;;;;;16.25;10.80;;;;;;;;;;5091347;28;20049;-70
2023/09/22 05:14:46;;;;;;;17.10;10.88;;;;;;;;;;5090721;28;20107;-70
2023/09/22 05:17:13;;;;;;;39.58;11.68;;;;;;;;;;5090839;28;20028;-72
2023/09/22 05:19:39;;;;;;;26.17;11.38;;;;;;;;;;5091008;28;20032;-71
2023/09/22 05:22:05;;;;;;;27.75;10.57;;;;;;;;;;5087563;28;20035;-71
2023/09/22 05:24:31;;;;;;;27.55;10.85;;;;;;;;;;5088416;28;20492;-71
2023/09/22 05:26:56;;;;;;;31.90;11.30;;;;;;;;;;5090818;28;20024;-71
2023/09/22 05:29:22;;;;;;;22.42;10.30;;;;;;;;;;5090603;28;20067;-71
2023/09/22 05:31:48;;;;;;;21.17;10.50;;;;;;;;;;5090927;28;20028;-71
2023/09/22 05:34:14;;;;;;;15.75;9.05;;;;;;;;;;5090625;28;20054;-70
2023/09/22 05:36:42;;;;;;;21.08;9.90;;;;;;;;;;5090775;28;20020;-71
2023/09/22 05:39:10;;;;;;;29.98;9.68;;;;;;;;;;5090346;28;20401;-71
2023/09/22 05:41:35;;;;;;;21.92;9.82;;;;;;;;;;5089146;28;20434;-71
2023/09/22 05:44:02;;;;;;;23.30;10.48;;;;;;;;;;5090515;28;20043;-71
2023/09/22 05:46:30;;;;;;;30.52;10.35;;;;;;;;;;5090604;28;20021;-71
2023/09/22 05:48:57;;;;;;;17.02;9.55;;;;;;;;;;5090418;28;20036;-72
2023/09/22 05:51:23;;;;;;;17.13;8.75;;;;;;;;;;5090774;28;20023;-71
2023/09/22 05:53:52;;;;;;;20.98;8.98;;;;;;;;;;5090273;28;20032;-70
2023/09/22 05:56:17;;;;;;;20.42;9.23;;;;;;;;;;5090240;28;20085;-70
2023/09/22 05:58:44;;;;;;;16.75;10.25;;;;;;;;;;5090747;28;20122;-72
2023/09/22 06:01:11;;;;;;;16.40;10.82;;;;;;;;;;5090437;28;20515;-71
2023/09/22 06:03:40;;;;;;;19.13;9.60;;;;;;;;;;5093604;28;20039;-71
2023/09/22 06:06:14;;;;;;;20.88;9.98;;;;;;;;;;5089241;28;20077;-71
2023/09/22 06:08:42;;;;;;;20.70;10.95;;;;;;;;;;5094142;28;20034;-72
2023/09/22 06:11:09;;;;;;;14.32;8.93;;;;;;;;;;5094128;28;20027;-71
2023/09/22 06:13:36;;;;;;;23.05;11.00;;;;;;;;;;5094258;28;20028;-71
2023/09/22 06:16:02;;;;;;;21.08;10.23;;;;;;;;;;5093066;28;20024;-70
2023/09/22 06:18:28;;;;;;;28.20;11.05;;;;;;;;;;5085577;28;20109;-71
2023/09/22 06:20:58;;;;;;;19.48;9.38;;;;;;;;;;5094115;28;20020;-71
2023/09/22 06:23:24;;;;;;;14.40;9.00;;;;;;;;;;5093223;28;20036;-71
2023/09/22 06:25:56;;;;;;;12.13;9.13;;;;;;;;;;5093835;28;20020;-72
2023/09/22 06:28:22;;;;;;;20.13;10.45;;;;;;;;;;5093322;28;20036;-71
2023/09/22 06:30:48;;;;;;;32.67;12.50;;;;;;;;;;5093168;28;20101;-72
2023/09/22 06:33:16;;;;;;;12.23;9.45;;;;;;;;;;5093015;28;20067;-70
2023/09/22 06:35:43;;;;;;;19.35;11.48;;;;;;;;;;5093839;28;20103;-71
2023/09/22 06:38:10;;;;;;;22.75;9.80;;;;;;;;;;5092387;28;20051;-72
2023/09/22 06:40:37;;;;;;;15.98;10.85;;;;;;;;;;5093212;28;20481;-71
2023/09/22 06:43:04;;;;;;;21.25;9.85;;;;;;;;;;5093239;28;20064;-72
2023/09/22 06:45:34;;;;;;;15.15;10.00;;;;;;;;;;5085483;28;20024;-74
2023/09/22 06:48:00;;;;;;;15.43;9.32;;;;;;;;;;5093024;28;20110;-74
2023/09/22 06:50:29;;;;;;;18.15;9.18;;;;;;;;;;5097531;28;20127;-71
2023/09/22 06:52:55;;;;;;;17.23;9.15;;;;;;;;;;5092609;28;20559;-74
2023/09/22 06:55:20;;;;;;;20.17;10.60;;;;;;;;;;5092439;28;20020;-73
2023/09/22 06:57:47;;;;;;;16.55;9.48;;;;;;;;;;5092712;28;20449;-72
2023/09/22 07:00:18;;;;;;;16.88;9.23;;;;;;;;;;5092869;28;20115;-72
2023/09/22 07:02:48;;;;;;;12.80;9.02;;;;;;;;;;5092265;28;20491;-71
2023/09/22 07:05:19;;;;;;;20.35;9.15;;;;;;;;;;5092522;28;20096;-71
2023/09/22 07:07:46;;;;;;;19.95;8.85;;;;;;;;;;5092238;28;20097;-72
2023/09/22 07:10:13;;;;;;;18.23;9.07;;;;;;;;;;5092475;28;20095;-71
2023/09/22 07:12:39;;;;;;;18.23;9.52;;;;;;;;;;5092095;28;20023;-72
2023/09/22 07:15:06;;;;;;;24.75;9.43;;;;;;;;;;5092559;28;20438;-70
2023/09/22 07:17:33;;;;;;;19.02;9.52;;;;;;;;;;5083818;28;20437;-71
2023/09/22 07:20:12;;;;;;;16.50;8.57;;;;;;;;;;5092581;28;20397;-72
2023/09/22 07:22:38;;;;;;;14.57;8.60;;;;;;;;;;5084635;28;20047;-70
2023/09/22 07:25:04;;;;;;;17.13;8.38;;;;;;;;;;5092223;28;20023;-69
2023/09/22 07:27:30;;;;;;;15.15;8.38;;;;;;;;;;5092441;28;20024;-71
2023/09/22 07:29:55;;;;;;;18.98;8.23;;;;;;;;;;5092121;28;20102;-69
2023/09/22 07:32:21;;;;;;;16.55;8.13;;;;;;;;;;5083745;28;20071;-69
2023/09/22 07:34:51;;;;;;;15.48;7.57;;;;;;;;;;5085662;28;20069;-71
2023/09/22 07:37:17;;;;;;;13.25;7.25;;;;;;;;;;5092803;28;20375;-70
2023/09/22 07:39:43;;;;;;;16.38;8.45;;;;;;;;;;5088647;28;20024;-70
2023/09/22 07:42:09;;;;;;;15.70;8.07;;;;;;;;;;5084281;28;20067;-71
2023/09/22 07:44:38;;;;;;;11.35;7.78;;;;;;;;;;5091222;28;20389;-71
2023/09/22 07:47:10;;;;;;;13.38;8.60;;;;;;;;;;5089816;28;20035;-71
2023/09/22 07:49:40;;;;;;;14.77;7.72;;;;;;;;;;5089945;28;20044;-72
2023/09/22 07:52:10;;;;;;;15.25;8.20;;;;;;;;;;5091660;28;20032;-72
2023/09/22 07:54:37;;;;;;;16.25;8.10;;;;;;;;;;5083646;28;20028;-73
2023/09/22 07:57:03;;;;;;;11.73;7.70;;;;;;;;;;5090191;28;20501;-71
2023/09/22 07:59:31;;;;;;;17.25;8.20;;;;;;;;;;5091142;28;20052;-71
2023/09/22 08:02:02;;;;;;;26.38;9.32;;;;;;;;;;5091599;28;20020;-72
2023/09/22 08:04:28;;;;;;;18.33;12.05;;;;;;;;;;5092128;28;20063;-71
2023/09/22 08:06:54;;;;;;;12.55;6.80;;;;;;;;;;5090186;28;20434;-72
2023/09/22 08:09:21;;;;;;;13.70;7.85;;;;;;;;;;5091764;28;20032;-72
2023/09/22 08:11:47;;;;;;;16.42;7.45;;;;;;;;;;5091186;28;20032;-72
2023/09/22 08:14:13;;;;;;;14.50;8.02;;;;;;;;;;5091477;28;20028;-71
2023/09/22 08:16:40;;;;;;;15.02;7.68;;;;;;;;;;5090915;28;20387;-72
2023/09/22 08:19:10;;;;;;;13.55;6.47;;;;;;;;;;5090468;28;20454;-70
2023/09/22 08:21:38;;;;;;;12.82;6.50;;;;;;;;;;5091451;28;20477;-72
2023/09/22 08:24:04;;;;;;;18.67;8.07;;;;;;;;;;5091180;28;20056;-72
2023/09/22 08:26:31;;;;;;;18.52;8.10;;;;;;;;;;5089954;28;20042;-72
2023/09/22 08:28:57;;;;;;;20.08;8.15;;;;;;;;;;5091642;28;20051;-71
2023/09/22 08:31:29;;;;;;;21.30;9.23;;;;;;;;;;5091456;28;20358;-72
2023/09/22 08:33:55;;;;;;;16.30;8.20;;;;;;;;;;5090184;28;20454;-72
2023/09/22 08:36:21;;;;;;;10.73;6.65;;;;;;;;;;5091248;28;20039;-73
2023/09/22 08:38:47;;;;;;;19.25;8.13;;;;;;;;;;5091091;28;20072;-72
2023/09/22 08:41:13;;;;;;;11.35;6.82;;;;;;;;;;5090957;28;20065;-73
2023/09/22 08:43:40;;;;;;;13.40;7.85;;;;;;;;;;5091178;28;20085;-72
2023/09/22 08:46:06;;;;;;;15.70;7.65;;;;;;;;;;5091543;28;20016;-71
2023/09/22 08:48:32;;;;;;;15.25;7.72;;;;;;;;;;5091785;28;20439;-72
2023/09/22 08:50:58;;;;;;;15.25;8.80;;;;;;;;;;5090777;28;20336;-72
2023/09/22 08:53:24;;;;;;;16.10;9.90;;;;;;;;;;5090834;28;20038;-72
2023/09/22 08:55:50;;;;;;;18.55;9.55;;;;;;;;;;5090833;28;20028;-72
2023/09/22 08:58:18;;;;;;;19.10;8.73;;;;;;;;;;5090867;28;20492;-71
2023/09/22 09:00:51;;;;;;;14.10;9.63;;;;;;;;;;5090565;28;20055;-72
2023/09/22 09:03:20;;;;;;;15.98;7.72;;;;;;;;;;5090809;28;20086;-71
2023/09/22 09:05:46;;;;;;;13.80;7.70;;;;;;;;;;5090749;28;20020;-72
2023/09/22 09:08:18;;;;;;;15.45;8.27;;;;;;;;;;5090874;28;20044;-72
2023/09/22 09:10:46;;;;;;;17.08;8.48;;;;;;;;;;5090778;28;20029;-72
2023/09/22 09:13:27;;;;;;;18.38;8.80;;;;;;;;;;5090815;28;20024;-71
2023/09/22 09:15:54;;;;;;;18.27;9.20;;;;;;;;;;5089400;28;20151;-72
2023/09/22 09:18:24;;;;;;;14.85;8.07;;;;;;;;;;5090812;28;20508;-72
2023/09/22 09:21:06;;;;;;;15.77;9.02;;;;;;;;;;5090870;28;20028;-72
2023/09/22 09:23:32;;;;;;;17.15;9.23;;;;;;;;;;5090794;28;20046;-72
2023/09/22 09:25:58;;;;;;;17.02;8.57;;;;;;;;;;5090394;28;20139;-73
2023/09/22 09:28:25;;;;;;;16.20;8.07;;;;;;;;;;5090522;28;20052;-72
2023/09/22 09:30:55;;;;;;;17.55;8.90;;;;;;;;;;5089879;28;20028;-72
2023/09/22 09:33:23;;;;;;;15.63;7.78;;;;;;;;;;5090799;28;20398;-71
2023/09/22 09:35:49;;;;;;;12.75;7.80;;;;;;;;;;5090622;28;20397;-73
2023/09/22 09:38:17;;;;;;;13.30;8.07;;;;;;;;;;5093174;28;20513;-72
2023/09/22 09:40:43;;;;;;;18.38;8.30;;;;;;;;;;5092549;28;20019;-72
2023/09/22 09:43:12;;;;;;;12.63;7.72;;;;;;;;;;5093826;28;20032;-71
2023/09/22 09:45:56;;;;;;;14.95;7.22;;;;;;;;;;5094407;28;20080;-72
2023/09/22 09:48:23;;;;;;;13.35;6.80;;;;;;;;;;5093577;28;20043;-71
2023/09/22 09:50:51;;;;;;;14.82;6.75;;;;;;;;;;5093365;28;20430;-72
2023/09/22 09:53:45;;;;;;;12.77;7.32;;;;;;;;;;5093294;28;20031;-71
2023/09/22 09:56:15;;;;;;;11.07;6.68;;;;;;;;;;5089009;28;20032;-71
2023/09/22 09:58:42;;;;;;;12.98;6.75;;;;;;;;;;5093832;28;20036;-71
2023/09/22 10:01:08;;;;;;;14.00;7.18;;;;;;;;;;5093918;28;20028;-71
2023/09/22 10:03:36;;;;;;;17.30;7.47;;;;;;;;;;5092528;28;20221;-71
2023/09/22 10:06:04;;;;;;;12.20;6.25;;;;;;;;;;5093537;28;20401;-70
2023/09/22 10:08:30;;;;;;;12.82;6.70;;;;;;;;;;5093550;28;20031;-71
2023/09/22 10:11:01;;;;;;;11.57;6.20;;;;;;;;;;5074423;28;20524;-72
2023/09/22 10:13:27;;;;;;;9.18;6.13;;;;;;;;;;5093462;28;20032;-72
2023/09/22 10:15:57;;;;;;;11.43;6.10;;;;;;;;;;5091991;28;20028;-71
2023/09/22 10:18:46;;;;;;;10.07;5.45;;;;;;;;;;5092848;28;20155;-72
2023/09/22 10:21:30;;;;;;;11.80;5.20;;;;;;;;;;5092835;28;20070;-71
2023/09/22 10:24:22;;;;;;;13.20;5.45;;;;;;;;;;5093187;28;20039;-71
2023/09/22 10:26:54;;;;;;;13.02;5.55;;;;;;;;;;5092974;28;20050;-71
2023/09/22 10:29:35;;;;;;;6.97;4.60;;;;;;;;;;5091871;28;20059;-72
2023/09/22 10:32:16;;;;;;;11.30;5.50;;;;;;;;;;5092649;28;20032;-73
2023/09/22 10:34:47;;;;;;;9.70;5.97;;;;;;;;;;5092957;28;20119;-72
2023/09/22 10:37:18;;;;;;;12.80;5.85;;;;;;;;;;5092062;28;20474;-72
2023/09/22 10:40:12;;;;;;;18.13;6.63;;;;;;;;;;5092861;28;20050;-71
2023/09/22 10:42:49;;;;;;;11.18;6.85;;;;;;;;;;5092444;28;20370;-72
2023/09/22 10:45:21;;;;;;;10.23;4.97;;;;;;;;;;5092918;28;20077;-72
2023/09/22 10:47:57;;;;;;;9.32;4.68;;;;;;;;;;5092119;28;20039;-72
2023/09/22 10:50:31;;;;;;;13.77;5.57;;;;;;;;;;5093149;28;20106;-72
2023/09/22 10:53:03;;;;;;;17.27;6.68;;;;;;;;;;5092952;28;20028;-71
2023/09/22 10:55:37;;;;;;;18.10;6.63;;;;;;;;;;5091712;28;20381;-72
2023/09/22 10:58:07;;;;;;;13.68;5.50;;;;;;;;;;5092624;28;20040;-72
2023/09/22 11:00:45;;;;;;;17.35;5.75;;;;;;;;;;5088693;28;20044;-72
2023/09/22 11:03:16;;;;;;;17.15;6.40;;;;;;;;;;5092170;28;20044;-72
2023/09/22 11:05:43;;;;;;;14.18;5.50;;;;;;;;;;5092076;28;20052;-72
2023/09/22 11:08:17;;;;;;;11.32;5.30;;;;;;;;;;5091289;28;20031;-72
2023/09/22 11:10:51;;;;;;;14.95;6.22;;;;;;;;;;5089348;28;20040;-72
2023/09/22 11:13:18;;;;;;;15.38;6.68;;;;;;;;;;5088436;28;20056;-72
2023/09/22 11:15:50;;;;;;;15.43;6.70;;;;;;;;;;5090546;28;20042;-72
2023/09/22 11:18:23;;;;;;;15.13;6.83;;;;;;;;;;5088694;28;20139;-71
2023/09/22 11:20:54;;;;;;;14.93;7.35;;;;;;;;;;5089710;28;20042;-72
2023/09/22 11:23:20;;;;;;;18.80;7.38;;;;;;;;;;5090442;28;20471;-72
2023/09/22 11:26:00;;;;;;;16.27;7.10;;;;;;;;;;5093263;28;20031;-72
2023/09/22 11:28:26;;;;;;;14.38;6.82;;;;;;;;;;5091679;28;20028;-73
2023/09/22 11:30:53;;;;;;;17.02;7.30;;;;;;;;;;5092299;28;20031;-72
2023/09/22 11:33:19;;;;;;;16.02;7.40;;;;;;;;;;5092510;28;20028;-71
2023/09/22 11:35:47;;;;;;;22.20;7.72;;;;;;;;;;5092261;28;20020;-72
2023/09/22 11:38:31;;;;;;;15.10;7.05;;;;;;;;;;5092762;28;20452;-72
2023/09/22 11:41:10;;;;;;;19.02;5.85;;;;;;;;;;5091297;28;20048;-72
2023/09/22 11:43:56;;;;;;;14.52;5.93;;;;;;;;;;5092747;28;20486;-72
2023/09/22 11:46:28;;;;;;;14.77;5.97;;;;;;;;;;5089940;28;20536;-71
2023/09/22 11:48:59;;;;;;;18.52;5.80;;;;;;;;;;5092661;28;20461;-72
2023/09/22 11:51:41;;;;;;;11.10;6.15;;;;;;;;;;5092513;28;20443;-72
2023/09/22 11:54:07;;;;;;;16.58;7.32;;;;;;;;;;5092141;28;20035;-71
2023/09/22 11:56:33;;;;;;;15.10;7.15;;;;;;;;;;5090900;28;20111;-74
2023/09/22 11:59:09;;;;;;;19.52;6.47;;;;;;;;;;5092309;28;20111;-74
2023/09/22 12:01:35;;;;;;;20.27;6.95;;;;;;;;;;5091857;28;20537;-73
2023/09/22 12:04:02;;;;;;;15.25;6.60;;;;;;;;;;5090669;28;20032;-73
2023/09/22 12:06:28;;;;;;;17.27;6.35;;;;;;;;;;5092251;28;20345;-73
2023/09/22 12:08:54;;;;;;;17.40;6.03;;;;;;;;;;5092087;28;20119;-73
2023/09/22 12:11:23;;;;;;;11.27;5.75;;;;;;;;;;5091968;28;20036;-73
2023/09/22 12:13:49;;;;;;;16.60;5.68;;;;;;;;;;5090957;28;20028;-74
2023/09/22 12:16:15;;;;;;;18.05;6.82;;;;;;;;;;5091935;28;20068;-72
2023/09/22 12:18:40;;;;;;;12.38;5.80;;;;;;;;;;5092279;28;20073;-73
2023/09/22 12:21:06;;;;;;;11.68;5.47;;;;;;;;;;5092069;28;20529;-72
2023/09/22 12:23:33;;;;;;;20.02;6.60;;;;;;;;;;5091885;28;20470;-73
2023/09/22 12:26:01;;;;;;;13.85;5.70;;;;;;;;;;5092580;28;20043;-73
2023/09/22 12:28:28;;;;;;;16.48;5.50;;;;;;;;;;5092760;28;20061;-73
2023/09/22 12:30:54;;;;;;;16.33;5.93;;;;;;;;;;5091820;28;20040;-73
2023/09/22 12:33:20;;;;;;;18.95;5.28;;;;;;;;;;5090200;28;20474;-72
2023/09/22 12:35:54;;;;;;;16.55;5.88;;;;;;;;;;5091880;28;20577;-72
2023/09/22 12:38:25;;;;;;;27.60;6.38;;;;;;;;;;5091953;28;20112;-74
2023/09/22 12:40:51;;;;;;;15.93;5.32;;;;;;;;;;5092025;28;20063;-72
2023/09/22 12:43:18;;;;;;;23.17;5.53;;;;;;;;;;5073554;28;20039;-72
2023/09/22 12:45:45;;;;;;;17.77;5.55;;;;;;;;;;5073505;28;20040;-72
2023/09/22 12:48:11;;;;;;;12.50;5.00;;;;;;;;;;5091809;28;20023;-73
2023/09/22 12:50:37;;;;;;;19.50;4.55;;;;;;;;;;5091855;28;20024;-75
2023/09/22 12:53:03;;;;;;;15.32;5.10;;;;;;;;;;5092465;28;20012;-74
2023/09/22 12:55:31;;;;;;;10.68;4.90;;;;;;;;;;5074237;28;20128;-74
2023/09/22 12:57:58;;;;;;;15.27;4.45;;;;;;;;;;5090298;28;20028;-74
2023/09/22 13:00:24;;;;;;;11.10;4.03;;;;;;;;;;5095794;28;20024;-72
2023/09/22 13:02:49;;;;;;;21.42;5.88;;;;;;;;;;5091967;28;20388;-72
2023/09/22 13:05:16;;;;;;;13.10;4.57;;;;;;;;;;5091446;28;20123;-71
2023/09/22 13:07:41;;;;;;;16.73;6.10;;;;;;;;;;5091375;28;20478;-72
2023/09/22 13:10:08;;;;;;;12.32;4.03;;;;;;;;;;5086771;28;20048;-72
2023/09/22 13:12:39;;;;;;;14.43;4.53;;;;;;;;;;5091065;28;20031;-72
2023/09/22 13:15:06;;;;;;;13.50;4.25;;;;;;;;;;5095815;28;20118;-72
2023/09/22 13:17:34;;;;;;;13.00;4.15;;;;;;;;;;5095740;28;20032;-72
2023/09/22 13:20:00;;;;;;;13.50;4.63;;;;;;;;;;5086829;28;20074;-69
2023/09/22 13:22:26;;;;;;;14.48;4.65;;;;;;;;;;5095753;28;20036;-71
2023/09/22 13:24:52;;;;;;;12.88;4.55;;;;;;;;;;5095106;28;20032;-70
2023/09/22 13:27:18;;;;;;;16.67;4.95;;;;;;;;;;5094234;28;20157;-70
2023/09/22 13:29:44;;;;;;;15.07;4.00;;;;;;;;;;5094923;28;20405;-71
2023/09/22 13:32:09;;;;;;;14.65;4.38;;;;;;;;;;5095037;28;20074;-71
2023/09/22 13:34:37;;;;;;;21.30;5.10;;;;;;;;;;5094960;28;20032;-71
2023/09/22 13:37:03;;;;;;;15.70;4.72;;;;;;;;;;5094898;28;20031;-70
2023/09/22 13:39:32;;;;;;;12.63;3.65;;;;;;;;;;5094865;28;20043;-70
2023/09/22 13:41:58;;;;;;;14.65;4.45;;;;;;;;;;5086161;28;20189;-70
2023/09/22 13:44:26;;;;;;;9.50;4.10;;;;;;;;;;5094423;28;20043;-70
2023/09/22 13:46:52;;;;;;;13.93;4.18;;;;;;;;;;5094380;28;20097;-70
2023/09/22 13:49:18;;;;;;;24.50;5.85;;;;;;;;;;5094543;28;20046;-71
2023/09/22 13:51:44;;;;;;;16.58;4.10;;;;;;;;;;5094485;28;20392;-71
2023/09/22 13:54:10;;;;;;;23.77;6.38;;;;;;;;;;5094736;28;20024;-71
2023/09/22 13:56:36;;;;;;;14.25;4.28;;;;;;;;;;5094412;28;20038;-69
2023/09/22 13:59:03;;;;;;;14.43;4.55;;;;;;;;;;5094525;28;20092;-71
2023/09/22 14:01:29;;;;;;;17.63;4.80;;;;;;;;;;5094232;28;20028;-72
2023/09/22 14:03:55;;;;;;;10.93;3.95;;;;;;;;;;5093779;28;20142;-69
2023/09/22 14:06:24;;;;;;;24.83;4.85;;;;;;;;;;5095223;28;20016;-70
2023/09/22 14:08:52;;;;;;;15.00;4.18;;;;;;;;;;5094329;28;20034;-70
2023/09/22 14:11:18;;;;;;;14.05;4.68;;;;;;;;;;5094137;28;20020;-70
2023/09/22 14:13:44;;;;;;;14.73;4.82;;;;;;;;;;5093397;28;20140;-70
2023/09/22 14:16:11;;;;;;;16.05;4.20;;;;;;;;;;5094731;28;20054;-70
2023/09/22 14:18:38;;;;;;;17.63;5.15;;;;;;;;;;5094894;28;20059;-71
2023/09/22 14:21:05;;;;;;;14.57;3.97;;;;;;;;;;5093916;28;20496;-72
2023/09/22 14:23:31;;;;;;;12.75;4.20;;;;;;;;;;5093039;28;20040;-71
2023/09/22 14:25:59;;;;;;;14.88;4.10;;;;;;;;;;5093837;28;20024;-73
2023/09/22 14:28:27;;;;;;;17.85;4.82;;;;;;;;;;5093748;28;20489;-73
2023/09/22 14:30:52;;;;;;;15.55;4.28;;;;;;;;;;5093765;28;20102;-71